createdAt,value
2023-05-14T00:01:24.045Z,49.25
2023-05-14T00:06:25.719Z,49.35
2023-05-14T00:11:27.231Z,49.41
2023-05-14T00:16:29.070Z,49.72
2023-05-14T00:21:31.772Z,50.13
2023-05-14T00:26:33.385Z,50.12
2023-05-14T00:31:35.227Z,50.27
2023-05-14T00:36:37.894Z,50.26
2023-05-14T00:41:39.581Z,50.24
2023-05-14T00:46:41.387Z,50.45
2023-05-14T00:51:46.719Z,50.54
2023-05-14T00:56:48.687Z,50.50
2023-05-14T01:01:51.068Z,50.54
2023-05-14T01:07:39.110Z,50.32
2023-05-14T01:13:02.859Z,50.65
2023-05-14T01:18:09.625Z,50.59
2023-05-14T01:23:12.120Z,50.43
2023-05-14T01:28:26.950Z,50.60
2023-05-14T01:33:29.734Z,50.64
2023-05-14T01:38:34.022Z,50.58
2023-05-14T01:43:37.618Z,50.69
2023-05-14T01:48:41.407Z,50.77
2023-05-14T01:53:43.351Z,50.73
2023-05-14T01:58:44.900Z,50.90
2023-05-14T02:03:46.478Z,50.73
2023-05-14T02:08:47.986Z,50.77
2023-05-14T02:13:49.624Z,50.39
2023-05-14T02:18:51.292Z,50.37
2023-05-14T02:23:52.898Z,50.48
2023-05-14T02:28:54.453Z,50.71
2023-05-14T02:33:55.953Z,50.45
2023-05-14T02:38:59.818Z,50.82
2023-05-14T02:44:01.403Z,50.64
2023-05-14T02:49:03.224Z,50.74
2023-05-14T02:54:04.951Z,50.69
2023-05-14T02:59:06.506Z,50.72
2023-05-14T03:04:08.672Z,50.93
2023-05-14T03:09:10.332Z,50.80
2023-05-14T03:14:11.895Z,50.50
2023-05-14T03:19:13.574Z,50.56
2023-05-14T03:24:15.391Z,50.58
2023-05-14T03:29:19.065Z,50.54
2023-05-14T03:34:20.678Z,50.66
2023-05-14T03:39:22.242Z,50.65
2023-05-14T03:44:23.820Z,51.06
2023-05-14T03:49:25.597Z,50.67
2023-05-14T03:54:27.221Z,50.90
2023-05-14T03:59:29.870Z,50.97
2023-05-14T04:04:31.428Z,50.80
2023-05-14T04:09:33.013Z,50.89
2023-05-14T04:14:34.531Z,50.99
2023-05-14T04:19:36.092Z,50.94
2023-05-14T04:24:37.975Z,51.20
2023-05-14T04:29:39.558Z,50.92
2023-05-14T04:34:41.204Z,51.28
2023-05-14T04:39:43.535Z,51.23
2023-05-14T04:44:45.043Z,51.34
2023-05-14T04:49:46.576Z,51.40
2023-05-14T04:54:48.123Z,51.52
2023-05-14T04:59:49.628Z,51.55
2023-05-14T05:04:51.098Z,52.02
2023-05-14T05:09:52.661Z,51.63
2023-05-14T05:14:54.154Z,51.77
2023-05-14T05:19:55.636Z,51.70
2023-05-14T05:24:58.685Z,51.83
2023-05-14T05:30:04.033Z,51.81
2023-05-14T05:35:06.547Z,51.91
2023-05-14T05:40:09.126Z,51.94
2023-05-14T05:45:10.880Z,51.90
2023-05-14T05:50:12.424Z,51.92
2023-05-14T05:55:13.923Z,52.00
2023-05-14T06:00:16.831Z,51.97
2023-05-14T06:05:19.378Z,51.79
2023-05-14T06:10:21.049Z,51.56
2023-05-14T06:15:23.075Z,51.72
2023-05-14T06:20:24.830Z,51.41
2023-05-14T06:25:26.603Z,51.59
2023-05-14T06:30:28.190Z,51.61
2023-05-14T06:35:29.731Z,51.60
2023-05-14T06:40:31.948Z,51.47
2023-05-14T06:45:33.507Z,51.75
2023-05-14T06:50:35.041Z,51.67
2023-05-14T06:55:36.693Z,51.76
2023-05-14T07:00:38.202Z,51.78
2023-05-14T07:05:41.182Z,51.70
2023-05-14T07:10:42.716Z,51.45
2023-05-14T07:15:44.256Z,51.70
2023-05-14T07:20:45.805Z,51.99
2023-05-14T07:25:47.298Z,51.67
2023-05-14T07:30:48.862Z,51.56
2023-05-14T07:35:51.109Z,51.60
2023-05-14T07:40:52.730Z,51.29
2023-05-14T07:45:54.379Z,50.95
2023-05-14T07:50:55.921Z,50.66
2023-05-14T07:55:57.845Z,50.88
2023-05-14T08:01:01.286Z,51.05
2023-05-14T08:06:03.923Z,50.83
2023-05-14T08:11:05.661Z,50.58
2023-05-14T08:16:07.556Z,50.22
2023-05-14T08:21:09.066Z,49.94
2023-05-14T08:26:10.579Z,49.81
2023-05-14T08:31:14.482Z,49.84
2023-05-14T08:36:16.179Z,50.33
2023-05-14T08:41:17.903Z,50.10
2023-05-14T08:46:23.265Z,49.78
2023-05-14T08:51:26.533Z,49.16
2023-05-14T08:56:29.389Z,48.94
2023-05-14T09:01:31.094Z,49.13
2023-05-14T09:06:33.225Z,48.94
2023-05-14T09:11:34.777Z,49.15
2023-05-14T09:16:37.485Z,48.88
2023-05-14T09:21:40.190Z,48.76
2023-05-14T09:26:42.473Z,48.82
2023-05-14T09:31:44.256Z,48.61
2023-05-14T09:36:45.866Z,48.61
2023-05-14T09:41:47.347Z,48.40
2023-05-14T09:46:49.453Z,48.05
2023-05-14T09:51:51.434Z,47.40
2023-05-14T09:56:54.542Z,47.33
2023-05-14T10:01:58.027Z,47.53
2023-05-14T10:07:00.870Z,47.62
2023-05-14T10:12:02.543Z,47.36
2023-05-14T10:17:06.374Z,47.20
2023-05-14T10:22:11.386Z,46.99
2023-05-14T10:27:13.051Z,46.99
2023-05-14T10:32:14.842Z,46.89
2023-05-14T10:37:25.370Z,47.34
2023-05-14T10:42:36.029Z,46.88
2023-05-14T10:47:46.473Z,46.76
2023-05-14T10:52:49.072Z,46.72
2023-05-14T10:57:52.214Z,45.49
2023-05-14T11:02:57.575Z,45.47
2023-05-14T11:08:01.648Z,46.13
2023-05-14T11:13:03.309Z,45.01
2023-05-14T11:18:05.204Z,45.33
2023-05-14T11:23:06.736Z,44.61
2023-05-14T11:28:08.355Z,44.07
2023-05-14T11:33:10.454Z,42.98
2023-05-14T11:38:21.345Z,43.25
2023-05-14T11:43:29.490Z,43.83
2023-05-14T11:48:31.970Z,43.33
2023-05-14T11:53:33.541Z,42.36
2023-05-14T11:58:35.119Z,43.13
2023-05-14T12:03:36.850Z,41.82
2023-05-14T12:08:38.511Z,41.42
2023-05-14T12:13:40.642Z,40.82
2023-05-14T12:18:42.809Z,40.87
2023-05-14T12:23:44.390Z,40.10
2023-05-14T12:28:47.618Z,41.69
2023-05-14T12:33:49.080Z,41.48
2023-05-14T12:38:51.310Z,41.38
2023-05-14T12:43:52.807Z,40.23
2023-05-14T12:48:54.860Z,40.69
2023-05-14T12:53:56.335Z,40.91
2023-05-14T12:58:57.944Z,40.73
2023-05-14T13:03:59.585Z,41.02
2023-05-14T13:09:02.369Z,41.52
2023-05-14T13:14:04.001Z,41.61
2023-05-14T13:19:05.629Z,40.03
2023-05-14T13:24:07.500Z,40.47
2023-05-14T13:29:09.332Z,40.10
2023-05-14T13:34:10.827Z,40.15
2023-05-14T13:39:14.141Z,40.52
2023-05-14T13:44:15.926Z,40.60
2023-05-14T13:49:17.508Z,40.80
2023-05-14T13:54:19.020Z,40.23
2023-05-14T13:59:20.995Z,41.06
2023-05-14T14:04:22.635Z,40.98
2023-05-14T14:09:24.590Z,40.56
2023-05-14T14:14:26.097Z,40.61
2023-05-14T14:19:27.669Z,41.06
2023-05-14T14:24:29.231Z,41.59
2023-05-14T14:29:31.156Z,41.58
2023-05-14T14:34:32.696Z,41.57
2023-05-14T14:39:34.239Z,41.30
2023-05-14T14:44:35.709Z,41.52
2023-05-14T14:49:37.187Z,41.92
2023-05-14T14:54:38.730Z,42.37
2023-05-14T14:59:40.381Z,43.06
2023-05-14T15:04:41.971Z,43.32
2023-05-14T15:09:43.451Z,43.63
2023-05-14T15:14:45.016Z,44.72
2023-05-14T15:19:46.612Z,44.94
2023-05-14T15:24:48.089Z,44.96
2023-05-14T15:29:49.604Z,45.52
2023-05-14T15:34:51.103Z,45.32
2023-05-14T15:39:52.643Z,45.15
2023-05-14T15:44:55.005Z,44.87
2023-05-14T15:49:56.615Z,45.24
2023-05-14T15:54:59.496Z,45.54
2023-05-14T16:00:01.128Z,45.97
2023-05-14T16:05:02.940Z,46.10
2023-05-14T16:10:05.925Z,46.08
2023-05-14T16:15:08.148Z,46.13
2023-05-14T16:20:10.335Z,46.35
2023-05-14T16:25:12.139Z,46.65
2023-05-14T16:30:13.704Z,46.41
2023-05-14T16:35:16.773Z,46.63
2023-05-14T16:40:19.629Z,46.38
2023-05-14T16:45:21.152Z,46.48
2023-05-14T16:50:22.666Z,46.71
2023-05-14T16:55:24.742Z,46.78
2023-05-14T17:00:26.447Z,46.44
2023-05-14T17:05:28.123Z,45.95
2023-05-14T17:10:30.253Z,45.66
2023-05-14T17:15:31.824Z,45.72
2023-05-14T17:20:33.459Z,45.41
2023-05-14T17:25:34.996Z,45.39
2023-05-14T17:30:36.497Z,45.58
2023-05-14T17:35:38.082Z,45.87
2023-05-14T17:40:40.819Z,46.32
2023-05-14T17:45:53.062Z,46.94
2023-05-14T17:50:55.651Z,46.80
2023-05-14T17:55:57.300Z,46.69
2023-05-14T18:00:58.821Z,46.77
2023-05-14T18:06:00.436Z,46.92
2023-05-14T18:11:01.984Z,47.13
2023-05-14T18:16:03.872Z,47.16
2023-05-14T18:21:05.520Z,47.17
2023-05-14T18:26:07.208Z,47.35
2023-05-14T18:31:08.945Z,47.45
2023-05-14T18:36:10.694Z,47.32
2023-05-14T18:41:12.215Z,47.47
2023-05-14T18:46:14.030Z,47.62
2023-05-14T18:51:15.712Z,47.54
2023-05-14T18:56:17.287Z,47.46
2023-05-14T19:01:18.840Z,47.33
2023-05-14T19:06:20.575Z,47.66
2023-05-14T19:11:22.591Z,47.65
2023-05-14T19:16:24.376Z,47.66
2023-05-14T19:21:25.880Z,48.00
2023-05-14T19:26:28.085Z,48.09
2023-05-14T19:31:29.643Z,48.37
2023-05-14T19:36:32.195Z,48.57
2023-05-14T19:41:33.707Z,48.80
2023-05-14T19:46:35.301Z,48.82
2023-05-14T19:51:36.857Z,48.97
2023-05-14T19:56:38.552Z,48.82
2023-05-14T20:01:40.185Z,48.94
2023-05-14T20:06:45.354Z,49.02
2023-05-14T20:11:46.945Z,49.15
2023-05-14T20:16:49.027Z,49.33
2023-05-14T20:21:50.641Z,49.63
2023-05-14T20:26:52.309Z,49.70
2023-05-14T20:31:53.859Z,49.85
2023-05-14T20:36:56.003Z,49.97
2023-05-14T20:41:57.525Z,50.27
2023-05-14T20:46:59.232Z,50.40
2023-05-14T20:52:00.786Z,50.43
2023-05-14T20:57:02.334Z,50.28
2023-05-14T21:02:04.385Z,50.46
2023-05-14T21:07:06.208Z,50.87
2023-05-14T21:12:08.241Z,50.54
2023-05-14T21:17:09.763Z,50.47
2023-05-14T21:22:12.706Z,50.35
2023-05-14T21:27:14.342Z,50.31
2023-05-14T21:32:16.005Z,50.28
2023-05-14T21:37:17.549Z,50.15
2023-05-14T21:42:20.963Z,49.97
2023-05-14T21:47:22.548Z,50.31
2023-05-14T21:52:24.089Z,49.94
2023-05-14T21:57:28.136Z,49.79
2023-05-14T22:02:30.215Z,49.71
2023-05-14T22:07:32.865Z,49.82
2023-05-14T22:12:34.465Z,49.75
2023-05-14T22:17:36.341Z,49.81
2023-05-14T22:22:38.540Z,49.81
2023-05-14T22:27:40.042Z,49.71
2023-05-14T22:32:41.624Z,49.49
2023-05-14T22:37:43.266Z,49.50
2023-05-14T22:42:45.219Z,49.65
2023-05-14T22:47:46.836Z,49.84
2023-05-14T22:52:48.380Z,49.71
2023-05-14T22:57:50.212Z,49.76
2023-05-14T23:02:51.873Z,49.63
2023-05-14T23:07:53.590Z,49.75
2023-05-14T23:12:55.208Z,49.62
2023-05-14T23:17:57.025Z,49.94
2023-05-14T23:22:58.745Z,49.72
2023-05-14T23:28:00.396Z,50.00
2023-05-14T23:33:01.954Z,50.18
2023-05-14T23:38:07.408Z,50.10
2023-05-14T23:43:08.921Z,50.46
2023-05-14T23:48:10.534Z,50.26
2023-05-14T23:53:12.050Z,50.51
2023-05-14T23:58:13.601Z,50.38
